createdAt,value
2023-04-17T00:01:49.009Z,3.23
2023-04-17T00:04:18.342Z,3.87
2023-04-17T00:06:46.729Z,4.83
2023-04-17T00:09:15.174Z,3.30
2023-04-17T00:11:43.597Z,3.87
2023-04-17T00:14:13.592Z,7.33
2023-04-17T00:16:42.045Z,3.20
2023-04-17T00:19:10.526Z,1.50
2023-04-17T00:21:38.853Z,1.57
2023-04-17T00:24:07.263Z,1.30
2023-04-17T00:26:35.712Z,1.30
2023-04-17T00:29:04.008Z,1.57
2023-04-17T00:31:33.771Z,1.30
2023-04-17T00:34:02.285Z,1.50
2023-04-17T00:36:31.930Z,1.80
2023-04-17T00:39:00.686Z,1.50
2023-04-17T00:41:29.076Z,1.63
2023-04-17T00:43:57.403Z,1.20
2023-04-17T00:46:25.850Z,1.40
2023-04-17T00:48:55.795Z,1.50
2023-04-17T00:51:24.168Z,1.50
2023-04-17T00:53:52.758Z,1.50
2023-04-17T00:56:21.240Z,1.87
2023-04-17T00:58:49.911Z,1.80
2023-04-17T01:01:18.898Z,1.47
2023-04-17T01:03:47.469Z,1.50
2023-04-17T01:06:17.397Z,1.30
2023-04-17T01:08:46.287Z,1.40
2023-04-17T01:11:14.520Z,1.50
2023-04-17T01:13:46.588Z,1.40
2023-04-17T01:16:15.024Z,1.40
2023-04-17T01:18:43.519Z,1.30
2023-04-17T01:21:11.914Z,1.83
2023-04-17T01:23:46.025Z,1.60
2023-04-17T01:26:18.029Z,2.03
2023-04-17T01:28:51.299Z,1.40
2023-04-17T01:31:19.710Z,1.70
2023-04-17T01:33:48.203Z,2.10
2023-04-17T01:36:16.835Z,1.70
2023-04-17T01:38:45.468Z,1.93
2023-04-17T01:41:13.797Z,1.90
2023-04-17T01:43:44.111Z,1.80
2023-04-17T01:46:12.710Z,2.20
2023-04-17T01:48:41.410Z,1.90
2023-04-17T01:51:09.786Z,1.60
2023-04-17T01:53:38.063Z,1.40
2023-04-17T01:56:06.491Z,2.00
2023-04-17T01:58:34.876Z,3.83
2023-04-17T02:01:04.593Z,1.60
2023-04-17T02:03:33.184Z,3.33
2023-04-17T02:06:02.499Z,1.60
2023-04-17T02:08:30.826Z,1.50
2023-04-17T02:10:59.182Z,2.50
2023-04-17T02:13:27.590Z,1.60
2023-04-17T02:15:55.906Z,1.60
2023-04-17T02:18:26.534Z,2.77
2023-04-17T02:20:54.862Z,1.63
2023-04-17T02:23:23.170Z,1.70
2023-04-17T02:25:51.653Z,1.83
2023-04-17T02:28:19.969Z,2.30
2023-04-17T02:30:48.298Z,2.60
2023-04-17T02:33:16.585Z,1.60
2023-04-17T02:35:46.648Z,1.43
2023-04-17T02:38:15.101Z,1.40
2023-04-17T02:40:43.384Z,1.37
2023-04-17T02:43:13.234Z,1.47
2023-04-17T02:45:41.646Z,1.80
2023-04-17T02:48:09.951Z,1.70
2023-04-17T02:50:38.275Z,1.87
2023-04-17T02:53:08.807Z,2.33
2023-04-17T02:55:37.129Z,2.33
2023-04-17T02:58:05.575Z,2.17
2023-04-17T03:00:33.957Z,3.10
2023-04-17T03:03:03.421Z,3.00
2023-04-17T03:05:32.129Z,2.63
2023-04-17T03:08:00.680Z,2.63
2023-04-17T03:10:30.378Z,1.60
2023-04-17T03:12:58.757Z,1.20
2023-04-17T03:15:27.136Z,2.00
2023-04-17T03:17:55.580Z,1.90
2023-04-17T03:20:23.921Z,2.57
2023-04-17T03:22:52.250Z,1.60
2023-04-17T03:25:20.629Z,1.60
2023-04-17T03:27:50.307Z,2.67
2023-04-17T03:30:18.630Z,2.40
2023-04-17T03:32:47.047Z,3.60
2023-04-17T03:35:15.584Z,3.03
2023-04-17T03:37:43.924Z,2.63
2023-04-17T03:40:12.522Z,2.47
2023-04-17T03:42:40.856Z,2.60
2023-04-17T03:45:11.478Z,2.13
2023-04-17T03:47:39.831Z,2.23
2023-04-17T03:50:08.698Z,1.70
2023-04-17T03:52:37.037Z,2.00
2023-04-17T03:55:05.615Z,1.67
2023-04-17T03:57:33.872Z,1.93
2023-04-17T04:00:02.159Z,1.70
2023-04-17T04:02:31.949Z,2.60
2023-04-17T04:05:00.406Z,1.70
2023-04-17T04:07:28.856Z,3.73
2023-04-17T04:09:57.257Z,1.87
2023-04-17T04:12:25.543Z,1.80
2023-04-17T04:14:53.855Z,4.97
2023-04-17T04:17:22.204Z,1.63
2023-04-17T04:19:51.896Z,1.50
2023-04-17T04:22:21.443Z,1.90
2023-04-17T04:24:53.600Z,2.60
2023-04-17T04:27:22.842Z,3.07
2023-04-17T04:29:51.168Z,1.97
2023-04-17T04:32:19.537Z,3.60
2023-04-17T04:34:47.931Z,2.63
2023-04-17T04:37:17.837Z,2.50
2023-04-17T04:39:47.506Z,2.83
2023-04-17T04:42:22.004Z,3.73
2023-04-17T04:44:50.564Z,3.10
2023-04-17T04:47:20.096Z,3.00
2023-04-17T04:49:48.478Z,3.13
2023-04-17T04:52:18.081Z,2.60
2023-04-17T04:54:46.498Z,3.30
2023-04-17T04:57:14.829Z,2.30
2023-04-17T04:59:43.195Z,2.27
2023-04-17T05:02:11.625Z,2.57
2023-04-17T05:04:40.245Z,2.27
2023-04-17T05:07:08.532Z,2.37
2023-04-17T05:09:38.251Z,2.60
2023-04-17T05:12:06.728Z,2.53
2023-04-17T05:14:35.148Z,2.40
2023-04-17T05:17:03.538Z,2.17
2023-04-17T05:19:31.817Z,1.70
2023-04-17T05:22:00.041Z,2.43
2023-04-17T05:24:28.314Z,2.60
2023-04-17T05:26:58.243Z,2.23
2023-04-17T05:29:27.487Z,2.70
2023-04-17T05:31:55.906Z,1.80
2023-04-17T05:34:24.234Z,2.77
2023-04-17T05:36:52.682Z,2.57
2023-04-17T05:39:21.772Z,2.93
2023-04-17T05:41:50.084Z,2.80
2023-04-17T05:44:19.664Z,2.40
2023-04-17T05:46:47.964Z,2.57
2023-04-17T05:49:16.252Z,2.13
2023-04-17T05:51:44.622Z,2.50
2023-04-17T05:54:12.937Z,2.63
2023-04-17T05:56:41.586Z,2.70
2023-04-17T05:59:10.089Z,2.70
2023-04-17T06:01:40.454Z,2.77
2023-04-17T06:04:09.161Z,2.53
2023-04-17T06:06:37.590Z,2.30
2023-04-17T06:09:07.126Z,2.60
2023-04-17T06:11:35.525Z,2.03
2023-04-17T06:14:03.873Z,2.13
2023-04-17T06:16:32.186Z,2.67
2023-04-17T06:19:01.992Z,2.27
2023-04-17T06:21:31.557Z,2.60
2023-04-17T06:23:59.894Z,2.40
2023-04-17T06:26:28.238Z,2.57
2023-04-17T06:28:56.548Z,2.70
2023-04-17T06:31:24.968Z,2.43
2023-04-17T06:33:53.328Z,2.53
2023-04-17T06:36:23.026Z,2.30
2023-04-17T06:38:51.357Z,2.57
2023-04-17T06:41:19.693Z,3.73
2023-04-17T06:43:47.976Z,2.60
2023-04-17T06:46:16.362Z,2.23
2023-04-17T06:48:44.809Z,2.73
2023-04-17T06:51:13.094Z,3.37
2023-04-17T06:53:42.844Z,2.37
2023-04-17T06:56:11.120Z,2.37
2023-04-17T06:58:44.298Z,3.27
2023-04-17T07:01:12.858Z,2.20
2023-04-17T07:03:41.594Z,2.20
2023-04-17T07:06:10.264Z,2.57
2023-04-17T07:08:38.595Z,2.37
2023-04-17T07:11:08.508Z,2.83
2023-04-17T07:13:36.783Z,3.17
2023-04-17T07:16:06.392Z,3.17
2023-04-17T07:18:34.888Z,3.13
2023-04-17T07:21:03.322Z,2.50
2023-04-17T07:23:31.745Z,2.10
2023-04-17T07:26:00.062Z,2.20
2023-04-17T07:28:29.764Z,3.03
2023-04-17T07:30:59.063Z,2.50
2023-04-17T07:33:27.406Z,2.70
2023-04-17T07:35:55.913Z,3.87
2023-04-17T07:38:24.200Z,2.47
2023-04-17T07:40:52.532Z,2.20
2023-04-17T07:43:20.923Z,2.50
2023-04-17T07:45:50.843Z,2.40
2023-04-17T07:48:19.474Z,2.63
2023-04-17T07:50:47.767Z,3.03
2023-04-17T07:53:16.498Z,2.97
2023-04-17T07:55:44.947Z,2.50
2023-04-17T07:58:14.098Z,2.97
2023-04-17T08:00:42.853Z,3.50
2023-04-17T08:03:14.262Z,3.30
2023-04-17T08:05:42.917Z,3.20
2023-04-17T08:08:11.318Z,3.10
2023-04-17T08:10:39.578Z,2.83
2023-04-17T08:13:08.084Z,3.00
2023-04-17T08:15:40.818Z,2.90
2023-04-17T08:18:09.670Z,3.10
2023-04-17T08:20:39.933Z,3.33
2023-04-17T08:23:08.390Z,3.30
2023-04-17T08:25:36.782Z,4.63
2023-04-17T08:28:05.135Z,3.37
2023-04-17T08:30:33.472Z,3.43
2023-04-17T08:33:01.846Z,4.20
2023-04-17T08:35:30.127Z,3.70
2023-04-17T08:38:00.261Z,3.73
2023-04-17T08:40:28.783Z,3.73
2023-04-17T08:42:57.123Z,3.50
2023-04-17T08:45:25.984Z,5.33
2023-04-17T08:47:54.426Z,4.33
2023-04-17T08:50:23.359Z,4.83
2023-04-17T08:52:53.079Z,5.27
2023-04-17T08:55:23.772Z,4.40
2023-04-17T08:57:55.705Z,4.77
2023-04-17T09:00:27.767Z,5.27
2023-04-17T09:02:57.343Z,5.30
2023-04-17T09:05:26.547Z,4.90
2023-04-17T09:08:07.974Z,5.10
2023-04-17T09:10:38.323Z,5.03
2023-04-17T09:13:07.553Z,7.03
2023-04-17T09:15:36.107Z,6.10
2023-04-17T09:18:04.792Z,6.77
2023-04-17T09:20:33.809Z,8.40
2023-04-17T09:23:03.062Z,6.07
2023-04-17T09:25:31.919Z,5.63
2023-04-17T09:28:11.568Z,7.10
2023-04-17T09:30:40.360Z,6.07
2023-04-17T09:33:09.526Z,8.23
2023-04-17T09:35:39.927Z,10.40
2023-04-17T09:38:08.772Z,13.70
2023-04-17T09:40:40.737Z,13.60
2023-04-17T09:43:11.319Z,15.07
2023-04-17T09:45:42.776Z,16.37
2023-04-17T09:48:12.149Z,14.07
2023-04-17T09:50:40.955Z,13.57
2023-04-17T09:53:09.965Z,16.10
2023-04-17T09:55:38.852Z,13.60
2023-04-17T09:58:08.263Z,12.00
2023-04-17T10:00:38.697Z,13.13
2023-04-17T10:03:08.982Z,10.07
2023-04-17T10:05:37.598Z,9.67
2023-04-17T10:08:06.236Z,10.80
2023-04-17T10:10:36.402Z,9.27
2023-04-17T10:13:06.934Z,9.40
2023-04-17T10:15:36.020Z,9.23
2023-04-17T10:18:28.317Z,10.07
2023-04-17T10:20:58.275Z,9.70
2023-04-17T10:23:33.591Z,13.17
2023-04-17T10:26:32.085Z,11.70
2023-04-17T10:29:00.432Z,13.00
2023-04-17T10:31:55.399Z,11.80
2023-04-17T10:34:35.795Z,13.43
2023-04-17T10:37:05.912Z,13.50
2023-04-17T10:39:49.965Z,12.87
2023-04-17T10:42:19.648Z,13.70
2023-04-17T10:44:48.356Z,13.80
2023-04-17T10:47:16.767Z,12.67
2023-04-17T10:49:52.044Z,12.77
2023-04-17T10:52:41.942Z,12.63
2023-04-17T10:55:11.303Z,12.90
2023-04-17T10:58:00.652Z,13.70
2023-04-17T11:00:33.597Z,12.93
2023-04-17T11:03:03.015Z,12.23
2023-04-17T11:05:32.371Z,12.53
2023-04-17T11:08:02.154Z,12.90
2023-04-17T11:10:30.461Z,13.60
2023-04-17T11:12:58.738Z,12.27
2023-04-17T11:15:28.255Z,13.00
2023-04-17T11:17:57.918Z,13.30
2023-04-17T11:20:27.170Z,12.83
2023-04-17T11:22:56.299Z,13.83
2023-04-17T11:25:26.855Z,13.30
2023-04-17T11:27:58.460Z,15.13
2023-04-17T11:30:28.407Z,14.43
2023-04-17T11:32:57.129Z,15.13
2023-04-17T11:35:29.254Z,13.57
2023-04-17T11:38:14.375Z,13.73
2023-04-17T11:40:47.996Z,16.27
2023-04-17T11:43:16.602Z,14.07
2023-04-17T11:45:46.497Z,14.70
2023-04-17T11:48:15.861Z,14.27
2023-04-17T11:50:44.756Z,18.13
2023-04-17T11:53:16.964Z,14.53
2023-04-17T11:55:47.485Z,14.23
2023-04-17T11:58:16.106Z,15.23
2023-04-17T12:00:44.423Z,13.50
2023-04-17T12:03:31.760Z,14.33
2023-04-17T12:06:01.378Z,30.30
2023-04-17T12:08:30.265Z,21.67
2023-04-17T12:11:00.116Z,23.13
2023-04-17T12:13:28.545Z,17.43
2023-04-17T12:15:56.988Z,44.77
2023-04-17T12:18:25.478Z,30.20
2023-04-17T12:20:53.772Z,13.73
2023-04-17T12:23:22.202Z,12.30
2023-04-17T12:25:50.544Z,11.20
2023-04-17T12:28:20.961Z,14.47
2023-04-17T12:30:49.540Z,12.20
2023-04-17T12:33:17.877Z,10.47
2023-04-17T12:35:46.206Z,12.40
2023-04-17T12:38:14.881Z,12.57
2023-04-17T12:40:45.451Z,12.40
2023-04-17T12:43:14.261Z,11.00
2023-04-17T12:45:45.697Z,10.50
2023-04-17T12:48:14.956Z,11.60
2023-04-17T12:50:44.405Z,10.50
2023-04-17T12:53:13.373Z,9.83
2023-04-17T12:55:42.246Z,10.07
2023-04-17T12:58:11.341Z,10.90
2023-04-17T13:00:40.531Z,10.00
2023-04-17T13:03:10.575Z,10.77
2023-04-17T13:05:39.529Z,9.73
2023-04-17T13:08:12.367Z,7.50
2023-04-17T13:10:40.854Z,8.47
2023-04-17T13:13:09.382Z,8.47
2023-04-17T13:15:38.052Z,9.73
2023-04-17T13:18:08.282Z,9.43
2023-04-17T13:20:38.080Z,7.13
2023-04-17T13:23:06.636Z,8.30
2023-04-17T13:25:35.608Z,9.50
2023-04-17T13:28:04.084Z,9.00
2023-04-17T13:30:33.553Z,8.57
2023-04-17T13:33:02.155Z,9.17
2023-04-17T13:35:30.598Z,9.90
2023-04-17T13:38:02.284Z,7.53
2023-04-17T13:40:30.895Z,7.37
2023-04-17T13:43:00.467Z,7.17
2023-04-17T13:45:29.128Z,6.60
2023-04-17T13:47:57.554Z,6.90
2023-04-17T13:50:26.076Z,6.40
2023-04-17T13:52:54.430Z,6.33
2023-04-17T13:55:24.412Z,6.23
2023-04-17T13:57:54.195Z,7.07
2023-04-17T14:00:22.908Z,5.80
2023-04-17T14:02:51.569Z,4.97
2023-04-17T14:05:20.145Z,5.73
2023-04-17T14:07:48.587Z,5.47
2023-04-17T14:10:17.102Z,5.70
2023-04-17T14:12:47.144Z,5.47
2023-04-17T14:15:16.224Z,5.10
2023-04-17T14:17:44.653Z,4.80
2023-04-17T14:20:15.126Z,5.43
2023-04-17T14:22:43.749Z,4.87
2023-04-17T14:25:12.307Z,5.23
2023-04-17T14:27:40.812Z,4.77
2023-04-17T14:30:11.266Z,4.90
2023-04-17T14:32:39.980Z,4.90
2023-04-17T14:35:08.667Z,4.53
2023-04-17T14:37:37.161Z,4.93
2023-04-17T14:40:05.881Z,4.80
2023-04-17T14:42:43.826Z,4.77
2023-04-17T14:45:20.862Z,5.20
2023-04-17T14:47:49.340Z,4.40
2023-04-17T14:50:17.786Z,5.17
2023-04-17T14:52:46.295Z,5.17
2023-04-17T14:55:14.685Z,5.30
2023-04-17T14:57:43.117Z,13.20
2023-04-17T15:00:12.017Z,6.50
2023-04-17T15:02:41.906Z,6.40
2023-04-17T15:05:10.828Z,7.23
2023-04-17T15:07:39.216Z,6.70
2023-04-17T15:10:08.098Z,5.83
2023-04-17T15:12:36.531Z,6.10
2023-04-17T15:15:04.994Z,5.93
2023-04-17T15:17:33.452Z,5.83
2023-04-17T15:20:04.153Z,6.07
2023-04-17T15:22:32.485Z,7.00
2023-04-17T15:25:00.814Z,6.03
2023-04-17T15:27:29.306Z,6.90
2023-04-17T15:29:57.715Z,6.43
2023-04-17T15:32:26.827Z,5.43
2023-04-17T15:34:55.402Z,6.17
2023-04-17T15:37:25.064Z,5.30
2023-04-17T15:39:53.540Z,6.67
2023-04-17T15:42:22.600Z,6.40
2023-04-17T15:44:51.122Z,5.30
2023-04-17T15:47:19.703Z,5.83
2023-04-17T15:49:48.251Z,5.80
2023-04-17T15:52:16.769Z,6.83
2023-04-17T15:54:46.685Z,5.73
2023-04-17T15:57:15.060Z,5.40
2023-04-17T15:59:43.384Z,5.20
2023-04-17T16:02:12.919Z,6.30
2023-04-17T16:04:43.719Z,6.13
2023-04-17T16:07:14.106Z,5.33
2023-04-17T16:09:46.653Z,6.10
2023-04-17T16:12:16.694Z,6.07
2023-04-17T16:14:45.113Z,4.33
2023-04-17T16:17:13.670Z,5.27
2023-04-17T16:19:42.036Z,5.60
2023-04-17T16:22:10.504Z,4.97
2023-04-17T16:24:38.915Z,5.30
2023-04-17T16:27:07.857Z,5.17
2023-04-17T16:29:37.783Z,5.50
2023-04-17T16:32:06.192Z,6.30
2023-04-17T16:34:34.644Z,7.37
2023-04-17T16:37:03.465Z,5.53
2023-04-17T16:39:31.886Z,5.50
2023-04-17T16:42:01.334Z,5.30
2023-04-17T16:44:30.013Z,4.60
2023-04-17T16:47:12.657Z,4.70
2023-04-17T16:49:42.734Z,5.93
2023-04-17T16:52:11.233Z,7.27
2023-04-17T16:54:39.612Z,8.20
2023-04-17T16:57:07.987Z,6.63
2023-04-17T16:59:36.374Z,7.40
2023-04-17T17:02:06.117Z,5.77
2023-04-17T17:04:34.493Z,7.40
2023-04-17T17:07:02.934Z,7.07
2023-04-17T17:09:31.308Z,6.00
2023-04-17T17:11:59.811Z,7.70
2023-04-17T17:14:28.209Z,8.63
2023-04-17T17:16:56.682Z,7.23
2023-04-17T17:19:26.768Z,8.53
2023-04-17T17:21:55.937Z,8.37
2023-04-17T17:24:24.326Z,7.87
2023-04-17T17:26:52.769Z,9.40
2023-04-17T17:29:21.306Z,8.30
2023-04-17T17:31:49.819Z,8.37
2023-04-17T17:34:26.133Z,8.03
2023-04-17T17:36:57.001Z,9.47
2023-04-17T17:39:25.466Z,8.30
2023-04-17T17:41:55.812Z,8.47
2023-04-17T17:44:24.450Z,8.80
2023-04-17T17:46:52.971Z,8.73
2023-04-17T17:49:21.461Z,9.20
2023-04-17T17:51:49.991Z,9.50
2023-04-17T17:54:19.706Z,8.23
2023-04-17T17:56:48.477Z,8.10
2023-04-17T17:59:17.105Z,8.83
2023-04-17T18:01:45.561Z,10.13
2023-04-17T18:04:14.467Z,10.20
2023-04-17T18:06:43.282Z,10.37
2023-04-17T18:09:11.927Z,11.13
2023-04-17T18:11:41.913Z,14.73
2023-04-17T18:14:10.513Z,17.87
2023-04-17T18:16:39.213Z,24.97
2023-04-17T18:19:07.614Z,29.73
2023-04-17T18:21:36.061Z,33.70
2023-04-17T18:24:04.570Z,26.27
2023-04-17T18:26:33.431Z,33.57
2023-04-17T18:29:03.364Z,35.17
2023-04-17T18:31:31.767Z,18.67
2023-04-17T18:34:02.474Z,20.23
2023-04-17T18:36:30.900Z,21.50
2023-04-17T18:38:59.464Z,35.13
2023-04-17T18:41:27.952Z,26.13
2023-04-17T18:43:56.258Z,24.80
2023-04-17T18:46:27.148Z,22.53
2023-04-17T18:48:55.711Z,17.87
2023-04-17T18:51:24.078Z,15.10
2023-04-17T18:53:52.417Z,14.77
2023-04-17T18:56:20.823Z,12.70
2023-04-17T18:58:49.192Z,15.80
2023-04-17T19:01:17.674Z,9.57
2023-04-17T19:03:47.440Z,12.60
2023-04-17T19:06:15.892Z,11.50
2023-04-17T19:08:44.352Z,8.33
2023-04-17T19:11:12.697Z,9.40
2023-04-17T19:13:42.402Z,8.57
2023-04-17T19:16:11.450Z,8.80
2023-04-17T19:18:39.794Z,7.00
2023-04-17T19:21:09.541Z,6.80
2023-04-17T19:23:38.274Z,7.33
2023-04-17T19:26:06.691Z,7.00
2023-04-17T19:28:35.156Z,6.70
2023-04-17T19:31:03.922Z,6.00
2023-04-17T19:33:33.788Z,6.50
2023-04-17T19:36:03.104Z,6.80
2023-04-17T19:38:33.184Z,5.90
2023-04-17T19:41:14.704Z,8.63
2023-04-17T19:43:43.435Z,10.00
2023-04-17T19:46:11.963Z,8.93
2023-04-17T19:48:41.514Z,7.60
2023-04-17T19:51:10.038Z,7.47
2023-04-17T19:53:41.186Z,8.67
2023-04-17T19:56:10.378Z,8.30
2023-04-17T19:58:38.903Z,6.60
2023-04-17T20:01:07.295Z,6.37
2023-04-17T20:03:38.281Z,6.47
2023-04-17T20:06:07.176Z,5.53
2023-04-17T20:08:36.684Z,5.63
2023-04-17T20:11:06.651Z,5.40
2023-04-17T20:13:35.135Z,5.17
2023-04-17T20:16:03.999Z,5.90
2023-04-17T20:18:33.828Z,6.03
2023-04-17T20:21:02.243Z,5.47
2023-04-17T20:23:30.772Z,5.80
2023-04-17T20:25:59.178Z,5.63
2023-04-17T20:28:29.183Z,7.00
2023-04-17T20:30:57.701Z,5.50
2023-04-17T20:33:26.255Z,6.27
2023-04-17T20:35:54.733Z,7.10
2023-04-17T20:38:23.114Z,5.47
2023-04-17T20:40:51.448Z,5.20
2023-04-17T20:43:19.819Z,6.83
2023-04-17T20:45:49.731Z,5.73
2023-04-17T20:48:18.213Z,6.20
2023-04-17T20:50:46.778Z,6.30
2023-04-17T20:53:15.121Z,9.20
2023-04-17T20:55:43.553Z,6.13
2023-04-17T20:58:11.934Z,6.10
2023-04-17T21:00:50.637Z,5.90
2023-04-17T21:03:28.183Z,6.47
2023-04-17T21:05:56.735Z,6.97
2023-04-17T21:08:25.208Z,5.97
2023-04-17T21:10:53.535Z,5.70
2023-04-17T21:13:22.034Z,6.07
2023-04-17T21:15:50.424Z,6.17
2023-04-17T21:18:18.837Z,6.37
2023-04-17T21:20:48.647Z,6.43
2023-04-17T21:23:17.093Z,5.33
2023-04-17T21:25:45.600Z,5.10
2023-04-17T21:28:13.978Z,5.60
2023-04-17T21:30:42.414Z,5.40
2023-04-17T21:33:10.821Z,5.47
2023-04-17T21:35:39.791Z,5.13
2023-04-17T21:38:09.695Z,6.23
2023-04-17T21:40:48.095Z,6.07
2023-04-17T21:43:19.257Z,7.20
2023-04-17T21:45:47.715Z,8.23
2023-04-17T21:48:16.262Z,7.77
2023-04-17T21:50:44.606Z,8.70
2023-04-17T21:53:14.355Z,14.00
2023-04-17T21:55:42.790Z,14.00
2023-04-17T21:58:11.409Z,11.50
2023-04-17T22:00:39.799Z,9.83
2023-04-17T22:03:08.225Z,10.80
2023-04-17T22:05:37.204Z,11.40
2023-04-17T22:08:05.549Z,12.33
2023-04-17T22:10:35.488Z,11.87
2023-04-17T22:13:03.946Z,11.43
2023-04-17T22:15:32.336Z,10.30
2023-04-17T22:18:00.841Z,12.37
2023-04-17T22:20:29.474Z,12.20
2023-04-17T22:22:57.961Z,11.50
2023-04-17T22:25:26.300Z,12.20
2023-04-17T22:27:56.131Z,11.43
2023-04-17T22:30:24.597Z,11.80
2023-04-17T22:32:53.051Z,13.47
2023-04-17T22:35:21.399Z,13.33
2023-04-17T22:37:49.832Z,14.20
2023-04-17T22:40:18.309Z,12.93
2023-04-17T22:42:46.716Z,13.43
2023-04-17T22:45:16.658Z,14.13
2023-04-17T22:47:45.174Z,12.50
2023-04-17T22:50:14.427Z,13.50
2023-04-17T22:52:42.886Z,14.60
2023-04-17T22:55:11.505Z,14.40
2023-04-17T22:57:39.927Z,13.23
2023-04-17T23:00:10.320Z,15.97
2023-04-17T23:02:40.319Z,17.73
2023-04-17T23:05:09.414Z,15.63
2023-04-17T23:07:40.145Z,13.30
2023-04-17T23:10:08.965Z,13.00
2023-04-17T23:12:37.374Z,11.47
2023-04-17T23:15:06.179Z,12.47
2023-04-17T23:17:34.570Z,11.07
2023-04-17T23:20:04.711Z,10.70
2023-04-17T23:22:33.270Z,11.23
2023-04-17T23:25:01.774Z,12.03
2023-04-17T23:27:30.453Z,10.57
2023-04-17T23:30:00.010Z,10.77
2023-04-17T23:32:28.487Z,11.13
2023-04-17T23:34:56.840Z,10.93
2023-04-17T23:37:26.753Z,10.07
2023-04-17T23:39:55.183Z,10.50
2023-04-17T23:42:23.627Z,8.33
2023-04-17T23:44:51.930Z,9.17
2023-04-17T23:47:20.696Z,9.40
2023-04-17T23:49:49.199Z,9.73
2023-04-17T23:52:18.969Z,10.53
2023-04-17T23:54:48.853Z,9.43
2023-04-17T23:57:17.336Z,9.50
2023-04-17T23:59:45.742Z,9.50
